Time;durP1;ratioP1;P1;durP2;ratioP2;P2;SDS_P1;SDS_P2;PMS_P1;PMS_P2;Temp;Humidity;BMP_temperature;BMP_pressure;BME280_temperature;BME280_humidity;BME280_pressure;Samples;Min_cycle;Max_cycle;Signal;HPM_P1;HPM_P2
2022/04/30 00:01:19;;;;;;;5.70;3.00;;;7.00;99.90;;;;;;5069285;28;20032;-76
2022/04/30 00:03:45;;;;;;;4.30;2.50;;;6.80;99.90;;;;;;5069450;28;20037;-76
2022/04/30 00:06:11;;;;;;;3.38;2.65;;;6.70;99.90;;;;;;5069224;28;20024;-76
2022/04/30 00:08:37;;;;;;;3.55;2.50;;;6.80;99.90;;;;;;5070214;28;20587;-76
2022/04/30 00:11:03;;;;;;;3.70;2.42;;;6.60;99.90;;;;;;5069265;28;20039;-76
2022/04/30 00:13:29;;;;;;;3.65;2.45;;;6.60;99.90;;;;;;5069156;28;20472;-76
2022/04/30 00:15:55;;;;;;;2.95;2.38;;;6.50;99.90;;;;;;5069966;28;20021;-76
2022/04/30 00:18:21;;;;;;;3.28;2.38;;;6.40;99.90;;;;;;5062474;28;20028;-76
2022/04/30 00:20:47;;;;;;;3.20;2.40;;;6.30;99.90;;;;;;5094931;22;20039;-72
2022/04/30 00:23:19;;;;;;;3.55;2.15;;;6.20;99.90;;;;;;5090501;28;20115;-73
2022/04/30 00:25:55;;;;;;;4.10;2.90;;;6.20;99.90;;;;;;5090403;28;20380;-72
2022/04/30 00:28:25;;;;;;;3.63;2.53;;;6.10;99.90;;;;;;5089114;28;20024;-72
2022/04/30 00:30:50;;;;;;;2.70;2.35;;;6.00;99.90;;;;;;5087434;28;20112;-73
2022/04/30 00:33:16;;;;;;;3.17;2.35;;;6.00;99.90;;;;;;5077507;28;20071;-72
2022/04/30 00:35:43;;;;;;;3.67;2.72;;;6.00;99.90;;;;;;5082262;28;20487;-72
2022/04/30 00:38:09;;;;;;;7.60;2.75;;;5.90;99.90;;;;;;5079590;28;20024;-73
2022/04/30 00:40:35;;;;;;;2.97;2.42;;;5.90;99.90;;;;;;5077542;28;20113;-73
2022/04/30 00:43:01;;;;;;;2.78;2.25;;;5.90;99.90;;;;;;5082156;28;20082;-73
2022/04/30 00:45:27;;;;;;;4.00;2.50;;;5.90;99.90;;;;;;5079080;28;20099;-72
2022/04/30 00:47:53;;;;;;;3.03;2.50;;;5.80;99.90;;;;;;5079547;28;20032;-72
2022/04/30 00:50:21;;;;;;;3.17;2.45;;;5.80;99.90;;;;;;5086230;28;20024;-73
2022/04/30 00:52:48;;;;;;;4.17;2.40;;;5.90;99.90;;;;;;5081974;28;20485;-72
2022/04/30 00:55:21;;;;;;;3.33;2.50;;;5.80;99.90;;;;;;5080609;28;20099;-72
2022/04/30 00:57:51;;;;;;;7.73;3.07;;;5.80;99.90;;;;;;5085620;28;20116;-73
2022/04/30 01:00:17;;;;;;;5.20;2.80;;;5.80;99.90;;;;;;5081061;28;20052;-72
2022/04/30 01:02:43;;;;;;;3.47;2.60;;;5.80;99.90;;;;;;5081954;28;20093;-73
2022/04/30 01:05:10;;;;;;;2.60;2.20;;;5.70;99.90;;;;;;5084989;28;20024;-72
2022/04/30 01:07:36;;;;;;;4.05;2.92;;;5.70;99.90;;;;;;5080623;28;20430;-73
2022/04/30 01:10:03;;;;;;;2.77;2.50;;;5.70;99.90;;;;;;5084416;28;20016;-73
2022/04/30 01:12:30;;;;;;;3.97;2.37;;;5.70;99.90;;;;;;5084536;28;20027;-72
2022/04/30 01:14:57;;;;;;;3.87;2.70;;;5.60;99.90;;;;;;5080506;28;20160;-73
2022/04/30 01:17:22;;;;;;;3.47;2.40;;;5.50;99.90;;;;;;5084949;28;20111;-74
2022/04/30 01:19:49;;;;;;;3.55;2.47;;;5.40;99.90;;;;;;5084232;28;20116;-74
2022/04/30 01:22:33;;;;;;;4.73;2.07;;;5.40;99.90;;;;;;5088974;23;20044;-76
2022/04/30 01:25:00;;;;;;;2.80;2.33;;;5.30;99.90;;;;;;5080250;28;20021;-76
2022/04/30 01:27:27;;;;;;;3.10;2.27;;;5.20;99.90;;;;;;5078103;28;20028;-75
2022/04/30 01:29:55;;;;;;;5.00;2.63;;;5.10;99.90;;;;;;5077963;28;20028;-76
2022/04/30 01:38:05;;;;;;;4.77;2.53;;;5.00;99.90;;;;;;5071643;28;20035;-75
2022/04/30 01:40:31;;;;;;;4.03;2.63;;;5.00;99.90;;;;;;5072088;28;20025;-76
2022/04/30 01:43:00;;;;;;;2.15;1.80;;;5.00;99.90;;;;;;5071706;28;20067;-76
2022/04/30 01:45:27;;;;;;;7.00;2.87;;;5.00;99.90;;;;;;5071915;28;20020;-76
2022/04/30 01:47:56;;;;;;;2.90;2.47;;;4.90;99.90;;;;;;5072109;28;20036;-76
2022/04/30 01:50:22;;;;;;;2.87;2.27;;;4.90;99.90;;;;;;5072502;28;20055;-76
2022/04/30 01:52:48;;;;;;;4.33;2.50;;;4.80;99.90;;;;;;5071391;28;20021;-76
2022/04/30 01:55:14;;;;;;;3.57;2.73;;;4.80;99.90;;;;;;5071447;28;20034;-76
2022/04/30 01:57:41;;;;;;;5.47;2.83;;;4.60;99.90;;;;;;5071528;28;20027;-76
2022/04/30 02:00:14;;;;;;;3.10;2.40;;;4.50;99.90;;;;;;5071398;28;20020;-76
2022/04/30 02:02:44;;;;;;;3.57;2.60;;;4.50;99.90;;;;;;5071096;28;20040;-76
2022/04/30 02:05:12;;;;;;;3.13;2.50;;;4.40;99.90;;;;;;5071749;28;20389;-76
2022/04/30 02:07:49;;;;;;;2.70;2.50;;;4.40;99.90;;;;;;5071502;28;20020;-76
2022/04/30 02:10:18;;;;;;;5.17;2.53;;;4.40;99.90;;;;;;5065434;28;20515;-76
2022/04/30 02:12:44;;;;;;;3.30;2.13;;;4.30;99.90;;;;;;5071390;28;20028;-76
2022/04/30 02:15:14;;;;;;;3.10;2.43;;;4.30;99.90;;;;;;5071623;28;20031;-75
2022/04/30 02:17:41;;;;;;;3.03;2.70;;;4.30;99.90;;;;;;5071905;28;20457;-76
2022/04/30 02:22:55;;;;;;;6.97;2.63;;;4.10;99.90;;;;;;5112677;22;20059;-74
2022/04/30 02:25:22;;;;;;;3.20;2.03;;;4.10;99.90;;;;;;5090994;28;20070;-74
2022/04/30 02:27:51;;;;;;;4.13;2.53;;;4.10;99.90;;;;;;5092171;28;20510;-74
2022/04/30 02:30:19;;;;;;;3.83;3.13;;;4.00;99.90;;;;;;5091752;28;20058;-74
2022/04/30 02:32:46;;;;;;;2.80;2.40;;;4.00;99.90;;;;;;5072781;28;20052;-74
2022/04/30 02:35:16;;;;;;;3.77;2.90;;;3.90;99.90;;;;;;5071545;28;20095;-74
2022/04/30 02:37:45;;;;;;;2.50;2.30;;;3.90;99.90;;;;;;5071537;28;20380;-74
2022/04/30 02:40:14;;;;;;;3.43;3.13;;;3.90;99.90;;;;;;5064798;28;20097;-74
2022/04/30 02:42:41;;;;;;;2.27;2.03;;;3.80;99.90;;;;;;5071362;28;20067;-74
2022/04/30 02:45:09;;;;;;;3.93;2.60;;;3.80;99.90;;;;;;5071213;28;20082;-74
2022/04/30 02:47:36;;;;;;;5.87;3.67;;;3.80;99.90;;;;;;5071359;28;20027;-74
2022/04/30 02:50:03;;;;;;;4.07;2.87;;;3.70;99.90;;;;;;5071294;28;20347;-74
2022/04/30 02:52:28;;;;;;;4.67;3.60;;;3.80;99.90;;;;;;5071180;28;20025;-74
2022/04/30 02:54:54;;;;;;;4.17;2.60;;;3.80;99.90;;;;;;5071576;28;20419;-74
2022/04/30 02:57:20;;;;;;;3.87;2.33;;;4.00;99.90;;;;;;5068283;28;20025;-74
2022/04/30 02:59:54;;;;;;;4.30;2.60;;;4.20;99.90;;;;;;5068579;28;20545;-74
2022/04/30 03:02:23;;;;;;;5.00;2.90;;;4.30;99.90;;;;;;5070983;28;20470;-74
2022/04/30 03:04:51;;;;;;;4.00;2.63;;;4.40;99.90;;;;;;5071394;28;20025;-74
2022/04/30 03:07:22;;;;;;;5.17;2.93;;;4.50;99.90;;;;;;5070850;28;20020;-74
2022/04/30 03:09:49;;;;;;;3.80;2.78;;;4.60;99.90;;;;;;5070404;28;20096;-74
2022/04/30 03:12:16;;;;;;;3.20;2.57;;;4.60;99.90;;;;;;5071077;28;20104;-74
2022/04/30 03:14:42;;;;;;;3.63;2.70;;;4.60;99.90;;;;;;5064098;28;20016;-74
2022/04/30 03:22:57;;;;;;;3.03;2.43;;;4.90;99.90;;;;;;5091967;22;20051;-75
2022/04/30 03:25:23;;;;;;;3.67;2.60;;;5.00;99.90;;;;;;5075737;28;20049;-75
2022/04/30 03:27:49;;;;;;;4.77;3.07;;;5.10;99.90;;;;;;5081627;28;20021;-76
2022/04/30 03:30:15;;;;;;;6.33;2.97;;;5.20;99.90;;;;;;5077261;28;20097;-76
2022/04/30 03:32:42;;;;;;;3.77;2.73;;;5.30;99.90;;;;;;5070936;28;20103;-76
2022/04/30 03:35:09;;;;;;;4.23;2.80;;;5.50;99.90;;;;;;5069860;28;20023;-75
2022/04/30 03:37:35;;;;;;;3.88;2.67;;;5.50;99.90;;;;;;5070117;28;20082;-75
2022/04/30 03:40:01;;;;;;;4.88;3.15;;;5.60;99.90;;;;;;5069932;28;20020;-75
2022/04/30 03:42:28;;;;;;;3.20;2.90;;;5.60;99.90;;;;;;5069923;28;20041;-77
2022/04/30 03:44:53;;;;;;;3.08;2.78;;;5.80;99.90;;;;;;5070409;28;20025;-77
2022/04/30 03:47:20;;;;;;;3.83;2.90;;;5.90;99.90;;;;;;5069964;28;20496;-75
2022/04/30 03:49:46;;;;;;;2.88;2.40;;;6.00;99.90;;;;;;5070151;28;20024;-77
2022/04/30 03:52:12;;;;;;;3.55;2.63;;;6.10;99.90;;;;;;5069866;28;20025;-77
2022/04/30 03:54:39;;;;;;;4.40;2.95;;;6.10;99.90;;;;;;5068930;28;20465;-77
2022/04/30 03:57:06;;;;;;;5.88;3.17;;;6.20;99.90;;;;;;5069778;28;20473;-77
2022/04/30 03:59:32;;;;;;;3.42;2.80;;;6.30;99.90;;;;;;5069742;28;20023;-77
2022/04/30 04:01:59;;;;;;;9.20;2.45;;;6.30;99.90;;;;;;5069774;28;20028;-77
2022/04/30 04:04:25;;;;;;;3.63;2.45;;;6.50;99.90;;;;;;5069424;28;20028;-77
2022/04/30 04:06:52;;;;;;;4.43;2.75;;;6.50;99.90;;;;;;5069444;28;20031;-77
2022/04/30 04:09:17;;;;;;;2.90;2.25;;;6.50;99.90;;;;;;5070267;28;20016;-77
2022/04/30 04:11:43;;;;;;;3.22;2.50;;;6.60;99.90;;;;;;5067879;28;20104;-77
2022/04/30 04:19:37;;;;;;;3.40;2.65;;;6.70;99.90;;;;;;5069477;28;20031;-77
2022/04/30 04:22:03;;;;;;;3.10;2.50;;;6.70;99.90;;;;;;5103936;22;20043;-73
2022/04/30 04:27:15;;;;;;;3.60;1.90;;;6.80;99.90;;;;;;5093863;28;20023;-73
2022/04/30 04:29:40;;;;;;;3.78;2.47;;;6.90;99.90;;;;;;5092830;28;20042;-73
2022/04/30 04:32:06;;;;;;;5.82;2.97;;;7.00;99.90;;;;;;5087433;28;20448;-73
2022/04/30 04:34:32;;;;;;;3.72;2.83;;;6.90;99.90;;;;;;5084467;28;20028;-73
2022/04/30 04:36:58;;;;;;;3.80;2.22;;;7.00;99.90;;;;;;5084091;28;20035;-73
2022/04/30 04:39:24;;;;;;;3.42;2.53;;;7.00;99.90;;;;;;5081410;28;20024;-73
2022/04/30 04:41:49;;;;;;;2.83;2.53;;;7.00;99.90;;;;;;5084709;28;20028;-73
2022/04/30 04:44:15;;;;;;;6.40;2.42;;;7.10;99.90;;;;;;5083978;28;20035;-73
2022/04/30 04:46:41;;;;;;;7.30;2.50;;;7.10;99.90;;;;;;5080896;28;20032;-73
2022/04/30 04:49:09;;;;;;;4.28;2.47;;;7.10;99.90;;;;;;5085909;28;20024;-73
2022/04/30 04:51:35;;;;;;;3.08;2.35;;;7.20;99.90;;;;;;5082372;28;20029;-73
2022/04/30 04:54:02;;;;;;;4.55;2.22;;;7.20;99.90;;;;;;5084647;28;20031;-73
2022/04/30 04:56:28;;;;;;;1.65;1.55;;;7.20;99.90;;;;;;5081162;28;20043;-73
2022/04/30 04:58:54;;;;;;;2.47;2.28;;;7.20;99.90;;;;;;5084093;28;20027;-73
2022/04/30 05:01:19;;;;;;;4.85;2.83;;;7.30;99.90;;;;;;5085234;28;20035;-72
2022/04/30 05:03:45;;;;;;;3.83;2.25;;;7.30;99.90;;;;;;5080947;28;20508;-72
2022/04/30 05:06:11;;;;;;;3.67;2.28;;;7.40;99.90;;;;;;5082368;28;20024;-73
2022/04/30 05:08:37;;;;;;;5.15;2.20;;;7.40;99.90;;;;;;5083578;28;20111;-73
2022/04/30 05:11:02;;;;;;;2.97;2.30;;;7.40;99.90;;;;;;5079980;28;20025;-73
2022/04/30 05:13:28;;;;;;;2.63;1.90;;;7.50;99.90;;;;;;5084263;28;20028;-73
2022/04/30 05:15:54;;;;;;;2.67;2.30;;;7.50;99.90;;;;;;5085017;28;20024;-72
2022/04/30 05:18:20;;;;;;;1.67;1.58;;;7.60;99.90;;;;;;5081278;28;20021;-72
2022/04/30 05:23:16;;;;;;;2.00;1.65;;;7.70;99.90;;;;;;5034059;28;20065;-77
2022/04/30 05:25:42;;;;;;;3.03;1.90;;;7.70;99.90;;;;;;5033868;28;20502;-77
2022/04/30 05:28:08;;;;;;;4.07;3.03;;;7.80;99.90;;;;;;5033902;28;20028;-76
2022/04/30 05:30:34;;;;;;;2.33;1.70;;;7.80;99.90;;;;;;5033900;28;20025;-77
2022/04/30 05:32:59;;;;;;;4.43;2.83;;;7.90;99.90;;;;;;5013273;28;20029;-77
2022/04/30 05:35:25;;;;;;;6.35;2.60;;;8.00;99.90;;;;;;5014009;28;20018;-77
2022/04/30 05:37:51;;;;;;;2.90;2.13;;;8.10;99.90;;;;;;5013822;28;20030;-77
2022/04/30 05:40:18;;;;;;;2.72;1.75;;;8.20;99.90;;;;;;5013658;28;20032;-76
2022/04/30 05:42:44;;;;;;;2.83;2.13;;;8.20;99.90;;;;;;5020555;28;20387;-77
2022/04/30 05:45:10;;;;;;;2.30;1.83;;;8.40;99.90;;;;;;5013750;28;20030;-77
2022/04/30 05:47:37;;;;;;;2.28;1.63;;;8.50;99.90;;;;;;5028772;28;20029;-77
2022/04/30 05:50:04;;;;;;;2.28;2.05;;;8.60;99.90;;;;;;5006974;28;20026;-76
2022/04/30 05:52:30;;;;;;;5.25;2.10;;;8.70;99.90;;;;;;5028561;28;20081;-76
2022/04/30 05:54:56;;;;;;;3.33;1.95;;;8.80;99.90;;;;;;5028612;28;20475;-77
2022/04/30 05:57:22;;;;;;;3.05;1.85;;;8.90;99.90;;;;;;5013257;28;20033;-76
2022/04/30 05:59:47;;;;;;;2.35;1.65;;;9.00;99.90;;;;;;5013613;28;20056;-77
2022/04/30 06:02:13;;;;;;;2.10;1.60;;;9.00;99.90;;;;;;5013180;28;20034;-77
2022/04/30 06:04:39;;;;;;;1.98;1.50;;;9.10;99.90;;;;;;5013647;28;20428;-76
2022/04/30 06:07:04;;;;;;;3.08;1.77;;;9.20;99.90;;;;;;5013077;28;20021;-77
2022/04/30 06:09:30;;;;;;;2.80;2.00;;;9.30;99.90;;;;;;5013305;28;20455;-76
2022/04/30 06:11:56;;;;;;;1.75;1.65;;;9.50;99.90;;;;;;5012470;28;20037;-76
2022/04/30 06:14:21;;;;;;;2.08;1.85;;;9.60;99.90;;;;;;5012672;28;20100;-77
2022/04/30 06:16:47;;;;;;;1.90;1.73;;;9.60;99.90;;;;;;5011866;28;20026;-77
2022/04/30 06:19:13;;;;;;;1.95;1.73;;;9.60;99.90;;;;;;5013153;28;20034;-77
2022/04/30 06:21:39;;;;;;;1.88;1.30;;;9.40;99.90;;;;;;5084188;22;20040;-72
2022/04/30 06:24:05;;;;;;;2.20;1.75;;;9.30;99.90;;;;;;5051173;28;20033;-72
2022/04/30 06:26:32;;;;;;;2.13;1.92;;;9.10;99.90;;;;;;5051976;28;20025;-72
2022/04/30 06:28:58;;;;;;;2.50;1.77;;;9.00;99.90;;;;;;5051264;28;20021;-72
2022/04/30 06:31:24;;;;;;;3.17;2.17;;;8.90;99.90;;;;;;5045667;28;20060;-72
2022/04/30 06:33:52;;;;;;;2.40;1.90;;;8.90;99.90;;;;;;5032150;28;20037;-72
2022/04/30 06:36:17;;;;;;;2.53;1.88;;;8.80;99.90;;;;;;5031210;28;20022;-73
2022/04/30 06:38:43;;;;;;;3.42;1.88;;;8.90;99.90;;;;;;5031579;28;20112;-74
2022/04/30 06:41:09;;;;;;;3.40;1.85;;;8.90;99.90;;;;;;5031777;28;20029;-72
2022/04/30 06:43:34;;;;;;;3.60;1.73;;;8.90;99.90;;;;;;5031708;28;20525;-73
2022/04/30 06:46:00;;;;;;;1.67;1.52;;;9.00;99.90;;;;;;5031424;28;20131;-71
2022/04/30 06:48:26;;;;;;;1.98;1.77;;;9.20;99.90;;;;;;5031736;28;20026;-73
2022/04/30 06:50:51;;;;;;;3.97;2.05;;;9.50;99.90;;;;;;5031552;28;20029;-73
2022/04/30 06:58:53;;;;;;;2.97;1.85;;;10.30;99.90;;;;;;5031810;28;20385;-74
2022/04/30 07:04:07;;;;;;;2.63;2.13;;;10.70;99.00;;;;;;5031200;28;20757;-75
2022/04/30 07:06:34;;;;;;;2.50;1.75;;;10.80;99.90;;;;;;5031364;28;20100;-74
2022/04/30 07:09:01;;;;;;;1.60;1.50;;;10.80;98.10;;;;;;5031452;28;20025;-74
2022/04/30 07:11:27;;;;;;;3.05;2.58;;;10.90;98.30;;;;;;5030847;28;20033;-74
2022/04/30 07:13:53;;;;;;;2.88;2.10;;;10.80;98.20;;;;;;5030911;28;20022;-73
2022/04/30 07:16:19;;;;;;;2.15;1.85;;;10.90;98.60;;;;;;5024250;28;20021;-74
2022/04/30 07:18:45;;;;;;;2.55;1.52;;;11.00;98.60;;;;;;5030979;28;20057;-74
2022/04/30 07:21:10;;;;;;;3.70;2.22;;;11.20;97.40;;;;;;5054038;22;20276;-80
2022/04/30 07:23:36;;;;;;;1.73;1.58;;;11.50;98.30;;;;;;5026455;28;20095;-77
2022/04/30 07:26:02;;;;;;;4.88;1.92;;;11.80;98.60;;;;;;5051241;28;20023;-80
2022/04/30 07:28:34;;;;;;;3.55;1.63;;;11.70;95.50;;;;;;5051324;28;20028;-77
2022/04/30 07:31:03;;;;;;;1.92;1.73;;;11.70;95.60;;;;;;5051045;28;20043;-77
2022/04/30 07:33:30;;;;;;;2.22;1.70;;;11.50;95.90;;;;;;5068980;28;20034;-77
2022/04/30 07:35:56;;;;;;;3.88;1.80;;;11.60;96.50;;;;;;5070008;28;20409;-76
2022/04/30 07:38:22;;;;;;;4.18;1.52;;;11.90;97.00;;;;;;5070930;28;20073;-76
2022/04/30 07:40:48;;;;;;;2.97;1.52;;;12.30;96.30;;;;;;5071101;28;20021;-77
2022/04/30 07:43:14;;;;;;;3.03;1.60;;;12.50;94.70;;;;;;5070986;28;20428;-77
2022/04/30 07:45:40;;;;;;;1.63;1.52;;;12.40;93.60;;;;;;5070904;28;20391;-77
2022/04/30 07:48:06;;;;;;;3.13;2.28;;;12.20;93.50;;;;;;5070853;28;20020;-77
2022/04/30 07:50:35;;;;;;;2.60;1.60;;;12.10;93.20;;;;;;5070980;28;20096;-76
2022/04/30 07:53:08;;;;;;;2.28;1.85;;;12.10;93.80;;;;;;5052384;28;20123;-75
2022/04/30 07:55:34;;;;;;;2.40;1.40;;;12.10;94.10;;;;;;5070436;28;20087;-76
2022/04/30 07:58:02;;;;;;;2.60;2.00;;;12.20;95.20;;;;;;5070158;28;20024;-75
2022/04/30 08:00:28;;;;;;;4.38;1.80;;;12.00;95.30;;;;;;5070672;28;20362;-76
2022/04/30 08:02:59;;;;;;;3.13;1.63;;;11.90;94.20;;;;;;5070747;28;20481;-75
2022/04/30 08:05:26;;;;;;;3.10;2.08;;;12.10;95.20;;;;;;5077874;28;20056;-75
2022/04/30 08:07:52;;;;;;;2.63;1.77;;;12.10;94.40;;;;;;5052985;28;20494;-76
2022/04/30 08:10:18;;;;;;;3.40;1.88;;;12.30;93.40;;;;;;5071041;28;20442;-76
2022/04/30 08:12:44;;;;;;;3.60;2.03;;;12.30;93.80;;;;;;5069266;28;20024;-76
2022/04/30 08:15:10;;;;;;;4.50;2.17;;;12.30;92.90;;;;;;5071832;28;20044;-78
2022/04/30 08:17:38;;;;;;;2.33;2.10;;;11.90;93.80;;;;;;5067603;28;20012;-76
2022/04/30 08:20:06;;;;;;;5.55;1.92;;;11.80;95.30;;;;;;5070878;28;20017;-76
2022/04/30 08:22:31;;;;;;;2.15;1.90;;;11.70;95.80;;;;;;5102373;23;20051;-74
2022/04/30 08:24:59;;;;;;;4.43;2.40;;;11.60;96.50;;;;;;5080387;28;20028;-74
2022/04/30 08:27:25;;;;;;;3.40;2.28;;;11.70;97.20;;;;;;5090347;28;20020;-72
2022/04/30 08:29:51;;;;;;;4.78;1.88;;;11.80;95.60;;;;;;5089599;28;20408;-73
2022/04/30 08:32:16;;;;;;;3.97;2.08;;;11.90;96.10;;;;;;5087443;28;20024;-74
2022/04/30 08:34:42;;;;;;;3.03;1.77;;;12.00;94.80;;;;;;5082648;28;20111;-74
2022/04/30 08:37:08;;;;;;;3.00;2.10;;;12.50;94.70;;;;;;5088581;28;20021;-74
2022/04/30 08:39:34;;;;;;;1.92;1.70;;;12.50;93.70;;;;;;5087356;28;20032;-74
2022/04/30 08:42:00;;;;;;;2.20;2.00;;;12.80;93.80;;;;;;5090205;28;20486;-74
2022/04/30 08:44:26;;;;;;;4.53;1.67;;;12.90;92.80;;;;;;5089624;28;20446;-73
2022/04/30 08:46:52;;;;;;;4.68;2.25;;;12.90;93.30;;;;;;5089123;28;20616;-73
2022/04/30 08:49:18;;;;;;;4.00;2.15;;;13.40;93.90;;;;;;5089575;28;20031;-73
2022/04/30 08:51:44;;;;;;;2.88;1.80;;;13.90;92.30;;;;;;5087293;28;20062;-73
2022/04/30 08:54:09;;;;;;;3.33;1.50;;;13.90;89.10;;;;;;5088727;28;20052;-73
2022/04/30 08:56:38;;;;;;;2.58;1.98;;;13.80;88.80;;;;;;5089681;28;20024;-73
2022/04/30 08:59:08;;;;;;;3.35;1.77;;;13.90;91.70;;;;;;5082223;28;20111;-73
2022/04/30 09:01:51;;;;;;;2.17;1.75;;;14.40;91.30;;;;;;5089105;28;20061;-73
2022/04/30 09:04:19;;;;;;;3.50;2.22;;;14.60;90.70;;;;;;5087975;28;20032;-73
2022/04/30 09:06:45;;;;;;;4.07;2.08;;;15.10;88.10;;;;;;5088925;28;20449;-73
2022/04/30 09:09:12;;;;;;;2.53;1.67;;;15.00;83.40;;;;;;5092240;28;20462;-73
2022/04/30 09:11:39;;;;;;;1.63;1.52;;;15.60;80.50;;;;;;5092705;28;20380;-73
2022/04/30 09:14:05;;;;;;;3.38;1.73;;;16.40;81.30;;;;;;5092756;28;20024;-73
2022/04/30 09:16:32;;;;;;;3.05;1.60;;;16.90;73.60;;;;;;5093339;28;20024;-73
2022/04/30 09:19:03;;;;;;;4.13;2.15;;;17.10;70.20;;;;;;5092439;28;20061;-73
2022/04/30 09:21:29;;;;;;;2.57;1.77;;;16.90;72.60;;;;;;5117326;22;20123;-81
2022/04/30 09:24:03;;;;;;;2.50;2.00;;;16.80;69.30;;;;;;5095813;28;20379;-81
2022/04/30 09:26:42;;;;;;;4.78;1.77;;;16.40;71.20;;;;;;5094621;28;20020;-82
2022/04/30 09:29:22;;;;;;;2.42;1.85;;;16.50;75.90;;;;;;5095779;28;20099;-80
2022/04/30 09:31:53;;;;;;;2.58;2.08;;;17.20;75.40;;;;;;5094257;28;20020;-81
2022/04/30 09:39:50;;;;;;;3.05;2.00;;;20.30;56.40;;;;;;5084131;28;20034;-82
2022/04/30 09:42:16;;;;;;;2.72;1.80;;;20.70;52.50;;;;;;5081865;28;20032;-81
2022/04/30 09:44:42;;;;;;;2.00;1.70;;;20.00;54.90;;;;;;5080517;28;20024;-84
2022/04/30 09:47:08;;;;;;;3.20;2.08;;;19.30;59.80;;;;;;5084541;28;20031;-82
2022/04/30 09:55:05;;;;;;;2.38;1.60;;;18.20;58.70;;;;;;5082729;28;20243;-84
2022/04/30 09:57:34;;;;;;;2.03;1.63;;;19.30;61.60;;;;;;5084632;28;20024;-83
2022/04/30 10:00:01;;;;;;;2.78;1.55;;;20.80;53.50;;;;;;5080124;28;20028;-83
2022/04/30 10:02:33;;;;;;;2.03;1.35;;;20.80;54.80;;;;;;5082990;28;20020;-84
2022/04/30 10:05:03;;;;;;;2.05;1.50;;;22.10;53.00;;;;;;5081064;28;20032;-83
2022/04/30 10:07:33;;;;;;;1.88;1.73;;;23.10;47.60;;;;;;5079238;28;20016;-83
2022/04/30 10:10:21;;;;;;;3.65;1.98;;;23.20;47.10;;;;;;5079837;28;20159;-83
2022/04/30 10:13:02;;;;;;;2.42;1.73;;;23.10;44.40;;;;;;5078553;28;20130;-82
2022/04/30 10:15:41;;;;;;;2.75;1.60;;;23.40;43.60;;;;;;5079311;28;20028;-83
2022/04/30 10:18:09;;;;;;;1.75;1.65;;;24.90;41.90;;;;;;5076664;28;20020;-83
2022/04/30 10:20:35;;;;;;;3.25;1.83;;;26.00;37.90;;;;;;5080736;28;20097;-84
2022/04/30 10:23:03;;;;;;;1.40;1.30;;;25.50;40.70;;;;;;5064433;23;20075;-74
2022/04/30 10:25:35;;;;;;;2.13;1.27;;;26.70;38.40;;;;;;5052011;28;20755;-73
2022/04/30 10:28:10;;;;;;;1.83;1.58;;;27.20;40.60;;;;;;5051569;28;20709;-74
2022/04/30 10:30:38;;;;;;;1.77;1.45;;;27.20;36.60;;;;;;5051754;28;20013;-72
2022/04/30 10:33:07;;;;;;;1.30;1.20;;;28.60;36.80;;;;;;5051644;28;20435;-75
2022/04/30 10:35:38;;;;;;;1.48;1.30;;;29.50;33.00;;;;;;5051836;28;20466;-74
2022/04/30 10:38:11;;;;;;;2.45;1.42;;;27.30;33.40;;;;;;5051589;28;20033;-74
2022/04/30 10:40:42;;;;;;;3.05;1.40;;;25.70;34.90;;;;;;5051784;28;20424;-74
2022/04/30 10:43:14;;;;;;;2.80;1.42;;;24.10;40.70;;;;;;5051803;28;20108;-74
2022/04/30 10:45:40;;;;;;;2.63;1.58;;;23.40;41.20;;;;;;5050888;28;20021;-74
2022/04/30 10:48:06;;;;;;;1.73;1.55;;;22.80;42.50;;;;;;5047778;28;20048;-75
2022/04/30 10:50:31;;;;;;;1.98;1.65;;;22.10;43.30;;;;;;5050235;28;20078;-74
2022/04/30 10:53:00;;;;;;;2.00;1.77;;;21.70;47.60;;;;;;5043290;28;20090;-74
2022/04/30 10:55:27;;;;;;;2.22;1.70;;;21.30;47.50;;;;;;5042768;28;20028;-75
2022/04/30 10:57:53;;;;;;;3.17;1.88;;;20.60;47.50;;;;;;5044296;28;20029;-75
2022/04/30 11:00:21;;;;;;;1.88;1.50;;;21.40;51.90;;;;;;5047799;28;20029;-75
2022/04/30 11:02:47;;;;;;;2.53;1.73;;;22.80;43.80;;;;;;5051126;28;20026;-75
2022/04/30 11:05:24;;;;;;;2.13;1.50;;;23.60;42.30;;;;;;5051123;28;20058;-75
2022/04/30 11:07:51;;;;;;;2.80;1.80;;;24.90;41.50;;;;;;5050630;28;20025;-75
2022/04/30 11:10:17;;;;;;;2.08;1.58;;;25.70;37.00;;;;;;5050395;28;20080;-75
2022/04/30 11:12:44;;;;;;;3.10;1.73;;;25.80;37.20;;;;;;5051459;28;20025;-76
2022/04/30 11:15:13;;;;;;;2.08;1.40;;;26.40;36.00;;;;;;5051065;28;20047;-75
2022/04/30 11:17:43;;;;;;;2.22;1.48;;;26.90;35.20;;;;;;5050982;28;20013;-75
2022/04/30 11:20:09;;;;;;;2.17;1.60;;;27.90;32.80;;;;;;5050908;28;20048;-76
2022/04/30 11:22:35;;;;;;;1.48;1.38;;;27.00;33.70;;;;;;5091404;23;20040;-82
2022/04/30 11:25:01;;;;;;;3.05;1.27;;;27.20;36.10;;;;;;5091043;28;20040;-83
2022/04/30 11:27:31;;;;;;;1.50;1.40;;;28.60;37.30;;;;;;5072876;28;20523;-80
2022/04/30 11:29:57;;;;;;;1.80;1.50;;;29.10;32.80;;;;;;5087884;28;20485;-83
2022/04/30 11:32:27;;;;;;;1.50;1.40;;;29.30;29.90;;;;;;5077987;28;20056;-83
2022/04/30 11:34:54;;;;;;;2.05;1.60;;;29.80;31.70;;;;;;5068828;28;20024;-84
2022/04/30 11:37:21;;;;;;;1.58;1.42;;;28.00;31.60;;;;;;5070683;28;20393;-83
2022/04/30 11:39:47;;;;;;;1.83;1.20;;;26.70;32.50;;;;;;5070363;28;20103;-83
2022/04/30 11:42:13;;;;;;;1.20;1.10;;;27.40;35.50;;;;;;5070687;28;20100;-80
2022/04/30 11:44:38;;;;;;;2.30;1.48;;;29.10;35.60;;;;;;5069165;28;20025;-79
2022/04/30 11:47:09;;;;;;;2.28;1.80;;;29.00;30.50;;;;;;5070029;28;20012;-81
2022/04/30 11:49:35;;;;;;;2.00;1.60;;;29.80;31.00;;;;;;5070239;28;20082;-82
2022/04/30 11:52:01;;;;;;;2.60;1.40;;;29.60;30.10;;;;;;5069729;28;20107;-82
2022/04/30 11:54:29;;;;;;;4.03;1.50;;;28.30;31.90;;;;;;5063181;28;20036;-80
2022/04/30 11:56:57;;;;;;;2.25;1.58;;;28.80;34.50;;;;;;5069813;28;20070;-81
2022/04/30 11:59:31;;;;;;;2.35;1.38;;;29.80;31.90;;;;;;5070007;28;20764;-84
2022/04/30 12:02:06;;;;;;;2.72;1.40;;;29.60;29.80;;;;;;5070072;28;20028;-82
2022/04/30 12:04:34;;;;;;;1.95;1.30;;;28.30;34.70;;;;;;5063658;28;20066;-82
2022/04/30 12:07:02;;;;;;;3.28;1.77;;;29.70;33.80;;;;;;5069990;28;20024;-81
2022/04/30 12:09:32;;;;;;;1.92;1.40;;;29.30;29.60;;;;;;5070022;28;20393;-87
2022/04/30 12:12:00;;;;;;;1.67;1.55;;;27.10;32.50;;;;;;5069956;28;20024;-84
2022/04/30 12:14:26;;;;;;;1.80;1.40;;;26.20;35.50;;;;;;5069640;28;20169;-79
2022/04/30 12:16:53;;;;;;;1.48;1.20;;;26.20;36.60;;;;;;5069850;28;20067;-82
2022/04/30 12:25:18;;;;;;;1.55;1.10;;;29.90;31.00;;;;;;5090275;28;20069;-73
2022/04/30 12:27:55;;;;;;;2.55;1.38;;;28.10;29.80;;;;;;5091071;28;20020;-73
2022/04/30 12:30:21;;;;;;;2.97;1.92;;;26.20;35.10;;;;;;5090783;28;20028;-75
2022/04/30 12:32:56;;;;;;;2.88;1.58;;;26.30;36.40;;;;;;5077297;28;20064;-76
2022/04/30 12:35:26;;;;;;;4.40;1.88;;;28.70;34.90;;;;;;5081376;28;20046;-75
2022/04/30 12:38:08;;;;;;;2.75;1.45;;;30.80;35.20;;;;;;5073284;28;20024;-75
2022/04/30 12:40:44;;;;;;;2.17;1.83;;;31.70;31.30;;;;;;5070580;28;20032;-75
2022/04/30 12:43:11;;;;;;;2.15;1.95;;;30.20;31.20;;;;;;5072878;28;20142;-75
2022/04/30 12:45:40;;;;;;;2.22;1.80;;;27.40;33.80;;;;;;5074229;28;20024;-75
2022/04/30 12:48:06;;;;;;;2.97;1.77;;;27.50;35.50;;;;;;5074482;28;20465;-75
2022/04/30 12:50:32;;;;;;;4.80;1.90;;;28.30;36.60;;;;;;5074502;28;20409;-75
2022/04/30 12:52:59;;;;;;;3.22;2.08;;;29.40;36.40;;;;;;5080104;28;20037;-75
2022/04/30 12:55:25;;;;;;;2.58;2.10;;;30.40;32.80;;;;;;5073963;28;20031;-75
2022/04/30 12:57:51;;;;;;;3.83;1.83;;;30.80;31.90;;;;;;5074147;28;20055;-75
2022/04/30 13:00:18;;;;;;;2.70;1.90;;;30.70;31.90;;;;;;5074282;28;20054;-74
2022/04/30 13:02:44;;;;;;;3.67;2.10;;;30.30;32.40;;;;;;5073747;28;20016;-75
2022/04/30 13:05:12;;;;;;;4.40;2.10;;;30.50;32.40;;;;;;5073869;28;20056;-73
2022/04/30 13:07:40;;;;;;;3.97;1.92;;;30.40;31.50;;;;;;5076188;28;20126;-75
2022/04/30 13:15:38;;;;;;;1.90;1.73;;;29.30;35.00;;;;;;5067707;28;20512;-75
2022/04/30 13:18:04;;;;;;;3.35;2.00;;;29.20;33.50;;;;;;5071768;28;20536;-75
2022/04/30 13:20:30;;;;;;;2.35;1.95;;;30.80;32.90;;;;;;5078450;28;20412;-76
2022/04/30 13:22:59;;;;;;;3.08;2.00;;;32.00;31.60;;;;;;5096518;22;20583;-81
2022/04/30 13:25:29;;;;;;;2.35;1.48;;;31.30;30.10;;;;;;5077276;28;20098;-83
2022/04/30 13:27:55;;;;;;;5.45;2.08;;;32.20;29.70;;;;;;5075696;28;20040;-86
2022/04/30 13:30:23;;;;;;;2.60;2.38;;;31.50;29.50;;;;;;5079934;28;20020;-83
2022/04/30 13:32:49;;;;;;;3.60;1.70;;;30.80;31.40;;;;;;5064019;28;20497;-83
2022/04/30 13:35:16;;;;;;;4.05;2.10;;;30.40;32.70;;;;;;5062577;28;20021;-87
2022/04/30 13:37:42;;;;;;;4.18;1.92;;;30.80;30.50;;;;;;5058572;28;20353;-84
2022/04/30 13:40:12;;;;;;;2.45;1.92;;;31.10;29.80;;;;;;5070621;28;20438;-84
2022/04/30 13:42:38;;;;;;;2.92;2.50;;;29.20;32.70;;;;;;5057734;28;20021;-86
2022/04/30 13:45:05;;;;;;;5.68;2.30;;;28.20;33.10;;;;;;5058565;28;20021;-84
2022/04/30 13:47:32;;;;;;;2.63;2.00;;;28.10;32.80;;;;;;5060112;28;20025;-84
2022/04/30 13:50:00;;;;;;;2.80;2.20;;;29.40;33.40;;;;;;5065373;28;20481;-84